Doris Moran — WRU2125 — position and weather

sailwx.info

Track history (hours):
 
Tides and Currents Weather Stations Pressure Air Temp Water Temp Dewpoint Dewpoint Depression Visibility Wind Speed Wind Dir Waves Ship Positions

Doris Moran

Owner: MORAN TOWING CORPORATION, New Canaan, CT. More information available from US FCC via Universal Licensing System and Coast Guard Vessel Documentation Center.

Last reported at 2016-Feb-11 21:10 UTC. Time now 2016-Feb-12 03:43 UTC.
Position N 40°39' W 074°07'.

Length 36 m; draft 5.3 m.

Type: Towing. MMSI: 366939790.

Date/timePositionNaut miles runAvg speedWind from/ knotsBaromVisibWave heightAir tempDewpointWater temp
2016-Feb-11 21:10N 40°39' W 074°07'0 0.1
2016-Feb-11 20:31N 40°39' W 074°07'4 3.6
2016-Feb-11 19:31N 40°40' W 074°02'0 0.0
2016-Feb-11 18:31N 40°40' W 074°02'0 0.0
2016-Feb-11 17:31N 40°40' W 074°02'0 0.0
2016-Feb-11 16:31N 40°40' W 074°02'0 0.1
2016-Feb-11 15:25N 40°40' W 074°02'0 0.0
2016-Feb-11 14:13N 40°40' W 074°02'0 0.0
2016-Feb-11 13:28N 40°40' W 074°02'0 0.1
2016-Feb-11 12:25N 40°40' W 074°02'5 0.5
2016-Feb-11 03:24N 40°39' W 074°08'2 2.8
2016-Feb-11 02:32N 40°41' W 074°09'0 0.4
2016-Feb-11 01:29N 40°41' W 074°09'0 0.4
2016-Feb-11 00:31N 40°41' W 074°09'3 3.0
2016-Feb-10 23:29N 40°39' W 074°06'1 1.2
2016-Feb-10 22:29N 40°39' W 074°07'0 0.1
2016-Feb-10 21:12N 40°39' W 074°07'3 4.7
2016-Feb-10 20:33N 40°38' W 074°04'3 0.8
2016-Feb-10 16:26N 40°38' W 074°08'4 4.7
2016-Feb-10 15:30N 40°37' W 074°03'5 5.4
2016-Feb-10 14:33N 40°41' W 074°00'0 0.0
2016-Feb-10 13:33N 40°41' W 074°00'6 6.3
2016-Feb-10 12:33N 40°39' W 074°08'0 0.0
2016-Feb-10 11:15N 40°38' W 074°08'0 0.0
2016-Feb-10 10:33N 40°38' W 074°08'0 0.0
2016-Feb-10 09:30N 40°38' W 074°08'0 0.0
2016-Feb-10 06:22N 40°38' W 074°08'0 0.0
2016-Feb-10 04:05N 40°39' W 074°08'3 6.3
2016-Feb-10 03:33N 40°42' W 074°09'3 3.2
2016-Feb-10 02:32N 40°39' W 074°08'6 6.6
2016-Feb-10 01:34N 40°41' W 074°00'2 1.7
2016-Feb-10 00:33N 40°40' W 074°02'1 0.8
2016-Feb-09 23:32N 40°40' W 074°03'0 0.1
2016-Feb-09 22:32N 40°39' W 074°03'0 0.0
2016-Feb-09 21:29N 40°39' W 074°03'0 0.0
2016-Feb-09 20:32N 40°39' W 074°03'0 0.0
2016-Feb-09 19:32N 40°39' W 074°03'0 0.0
2016-Feb-09 18:29N 40°39' W 074°03'0 0.0
2016-Feb-09 17:32N 40°39' W 074°03'2 1.5
2016-Feb-09 16:33N 40°39' W 074°05'2 0.6
2016-Feb-09 12:14N 40°38' W 074°08'2 0.2
2016-Feb-08 23:34N 40°39' W 074°05'2 2.3
2016-Feb-08 22:33N 40°40' W 074°03'4 4.0
2016-Feb-08 21:33N 40°41' W 074°08'0 0.4
2016-Feb-08 20:33N 40°41' W 074°08'2 0.5
2016-Feb-08 16:12N 40°38' W 074°08'0 0.0
2016-Feb-08 13:30N 40°38' W 074°08'0 0.0
2016-Feb-08 12:22N 40°38' W 074°08'0 0.0
2016-Feb-08 11:32N 40°38' W 074°08'0 0.0
2016-Feb-08 10:33N 40°38' W 074°08'0 0.0
2016-Feb-08 09:25N 40°38' W 074°08'0 0.0
2016-Feb-08 08:33N 40°38' W 074°08'0 0.0
2016-Feb-08 07:33N 40°38' W 074°08'0 0.0
2016-Feb-08 06:33N 40°38' W 074°08'0 0.0
2016-Feb-08 05:32N 40°38' W 074°08'0 0.0
2016-Feb-08 04:33N 40°38' W 074°08'0 0.0
2016-Feb-08 03:32N 40°38' W 074°08'0 0.0
2016-Feb-08 02:21N 40°38' W 074°08'0 0.0
2016-Feb-08 01:31N 40°38' W 074°08'0 0.0
2016-Feb-07 21:32N 40°38' W 074°08'0 0.0
2016-Feb-07 20:33N 40°38' W 074°08'0 0.0
2016-Feb-07 19:25N 40°38' W 074°08'0 0.0
2016-Feb-07 17:12N 40°38' W 074°08'1 2.3
2016-Feb-07 16:34N 40°40' W 074°09'0 0.2
2016-Feb-07 15:34N 40°40' W 074°09'1 0.1
2016-Feb-07 06:03N 40°38' W 074°08'1 0.9
2016-Feb-07 04:33N 40°39' W 074°06'3 2.5
2016-Feb-07 03:33N 40°39' W 074°03'0 0.0
2016-Feb-07 02:34N 40°39' W 074°03'1 1.1
2016-Feb-07 01:33N 40°39' W 074°04'3 2.6
2016-Feb-07 00:28N 40°38' W 074°08'0 0.0
2016-Feb-06 22:13N 40°38' W 074°08'2 2.5
2016-Feb-06 21:19N 40°39' W 074°11'4 4.9
2016-Feb-06 20:34N 40°39' W 074°06'2 1.6
2016-Feb-06 19:33N 40°38' W 074°08'0 0.0
2016-Feb-06 18:33N 40°38' W 074°08'0 0.0
2016-Feb-06 17:33N 40°38' W 074°08'0 0.0
2016-Feb-06 16:33N 40°38' W 074°08'0 0.0
2016-Feb-06 15:34N 40°38' W 074°08'0 0.0
2016-Feb-06 14:34N 40°38' W 074°08'0 0.0
2016-Feb-06 13:34N 40°38' W 074°08'0 0.0
2016-Feb-06 12:33N 40°38' W 074°08'0 0.0
2016-Feb-06 11:33N 40°38' W 074°08'0 0.0
2016-Feb-06 10:33N 40°38' W 074°08'0 0.0
2016-Feb-06 09:34N 40°38' W 074°08'0 0.0
2016-Feb-06 08:34N 40°38' W 074°08'0 0.0
2016-Feb-06 07:33N 40°38' W 074°08'0 0.0
2016-Feb-06 06:33N 40°38' W 074°08'0 0.0
2016-Feb-06 05:34N 40°38' W 074°08'0 0.0
2016-Feb-06 04:33N 40°38' W 074°08'0 0.0
2016-Feb-06 03:33N 40°38' W 074°08'0 0.0
2016-Feb-06 02:33N 40°38' W 074°08'0 0.0
2016-Feb-06 01:33N 40°38' W 074°08'3 2.9
2016-Feb-06 00:34N 40°40' W 074°05'4 3.9
2016-Feb-05 23:33N 40°36' W 074°03'4 4.2
2016-Feb-05 22:32N 40°38' W 074°08'0 0.0
2016-Feb-05 21:32N 40°38' W 074°08'0 0.0
2016-Feb-05 20:33N 40°38' W 074°08'0 0.0
2016-Feb-05 18:10N 40°38' W 074°08'0 0.0
2016-Feb-05 17:27N 40°38' W 074°08'0 0.0
2016-Feb-05 16:33N 40°38' W 074°08'0 0.0
2016-Feb-05 15:33N 40°38' W 074°08'0 0.0
2016-Feb-05 14:30N 40°38' W 074°08'0 0.0
2016-Feb-05 13:29N 40°38' W 074°08'0 0.0
2016-Feb-05 12:16N 40°38' W 074°08'2 2.1
2016-Feb-05 11:33N 40°40' W 074°09'0 0.2
2016-Feb-05 10:33N 40°40' W 074°09'2 1.7
2016-Feb-05 09:33N 40°39' W 074°08'0 0.0
2016-Feb-04 22:10N 40°39' W 074°08'0 0.6
2016-Feb-04 21:28N 40°39' W 074°07'4 4.5
2016-Feb-04 20:34N 40°40' W 074°02'0 0.2
2016-Feb-04 19:31N 40°40' W 074°02'0 0.0
2016-Feb-04 18:31N 40°40' W 074°02'0 0.0
2016-Feb-04 17:31N 40°40' W 074°02'0 0.0
2016-Feb-04 16:31N 40°40' W 074°02'0 0.0
2016-Feb-04 15:31N 40°40' W 074°02'0 0.0
2016-Feb-04 14:31N 40°40' W 074°02'0 0.0
2016-Feb-04 13:31N 40°40' W 074°02'0 0.1
2016-Feb-04 12:31N 40°40' W 074°02'0 0.1
2016-Feb-04 11:31N 40°40' W 074°02'0 0.1
2016-Feb-04 10:31N 40°40' W 074°02'0 0.0
2016-Feb-04 09:31N 40°40' W 074°02'0 0.0
2016-Feb-04 08:31N 40°40' W 074°02'0 0.0
2016-Feb-04 07:31N 40°40' W 074°02'0 0.1
2016-Feb-04 06:31N 40°40' W 074°02'0 0.1
2016-Feb-04 05:31N 40°40' W 074°02'0 0.0
2016-Feb-04 04:31N 40°40' W 074°02'0 0.0
2016-Feb-04 03:31N 40°40' W 074°02'2 2.0
2016-Feb-04 02:32N 40°38' W 074°04'3 3.1
2016-Feb-04 01:33N 40°38' W 074°08'0 0.3
2016-Feb-04 00:33N 40°39' W 074°08'3 2.9
2016-Feb-03 23:33N 40°41' W 074°08'3 3.2
2016-Feb-03 22:33N 40°39' W 074°06'5 4.6
2016-Feb-03 21:33N 40°41' W 074°00'6 1.2
2016-Feb-03 16:10N 40°38' W 074°08'2 3.5
2016-Feb-03 15:32N 40°41' W 074°09'2 1.6
2016-Feb-03 14:33N 40°39' W 074°09'1 1.0
2016-Feb-03 13:32N 40°38' W 074°08'0 0.0
2016-Feb-03 12:26N 40°38' W 074°08'2 2.6
2016-Feb-03 11:33N 40°41' W 074°09'0 0.0
2016-Feb-03 10:33N 40°41' W 074°09'3 2.6
2016-Feb-03 09:22N 40°39' W 074°05'3 3.5
2016-Feb-03 08:33N 40°37' W 074°03'4 4.0
2016-Feb-03 07:31N 40°38' W 074°08'0 0.0
2016-Feb-03 06:28N 40°38' W 074°08'0 0.0
2016-Feb-03 05:31N 40°38' W 074°08'0 0.0
2016-Feb-03 04:28N 40°38' W 074°08'0 0.0
2016-Feb-03 03:31N 40°38' W 074°08'0 0.0
2016-Feb-03 02:31N 40°38' W 074°08'2 1.8
2016-Feb-03 01:33N 40°40' W 074°08'0 0.2
2016-Feb-03 00:34N 40°40' W 074°08'5 5.2
2016-Feb-02 23:33N 40°41' W 074°01'4 4.4
2016-Feb-02 22:33N 40°39' W 074°06'1 0.5
2016-Feb-02 20:21N 40°38' W 074°08'0 0.0
2016-Feb-02 18:27N 40°38' W 074°08'0 0.0
2016-Feb-02 16:33N 40°38' W 074°08'1 0.7
2016-Feb-02 15:33N 40°38' W 074°09'2 2.3
2016-Feb-02 14:33N 40°41' W 074°09'2 0.3
2016-Feb-02 05:32N 40°38' W 074°08'0 0.0
2016-Feb-02 04:32N 40°38' W 074°08'0 0.0
2016-Feb-02 03:33N 40°38' W 074°08'6 6.3
2016-Feb-02 02:33N 40°41' W 074°00'7 6.9
2016-Feb-02 01:33N 40°38' W 074°09'3 2.8
2016-Feb-02 00:22N 40°42' W 074°09'2 2.5
2016-Feb-01 23:32N 40°40' W 074°09'1 1.5
2016-Feb-01 22:34N 40°39' W 074°07'2 1.6
2016-Feb-01 21:33N 40°40' W 074°09'  
Track history (hours):
 
Tides and Currents Weather Stations Pressure Air Temp Water Temp Dewpoint Dewpoint Depression Visibility Wind Speed Wind Dir Waves Ship Positions

Doris Moran

Owner: MORAN TOWING CORPORATION, New Canaan, CT. More information available from US FCC via Universal Licensing System and Coast Guard Vessel Documentation Center.

Last reported at 2016-Feb-11 21:10 UTC. Time now 2016-Feb-12 03:43 UTC.
Position N 40°39' W 074°07'.

Length 36 m; draft 5.3 m.

Type: Towing. MMSI: 366939790.

Date/timePositionNaut miles runAvg speedWind from/ knotsBaromVisibWave heightAir tempDewpointWater temp
2016-Feb-11 21:10N 40°39' W 074°07'0 0.1
2016-Feb-11 20:31N 40°39' W 074°07'4 3.6
2016-Feb-11 19:31N 40°40' W 074°02'0 0.0
2016-Feb-11 18:31N 40°40' W 074°02'0 0.0
2016-Feb-11 17:31N 40°40' W 074°02'0 0.0
2016-Feb-11 16:31N 40°40' W 074°02'0 0.1
2016-Feb-11 15:25N 40°40' W 074°02'0 0.0
2016-Feb-11 14:13N 40°40' W 074°02'0 0.0
2016-Feb-11 13:28N 40°40' W 074°02'0 0.1
2016-Feb-11 12:25N 40°40' W 074°02'5 0.5
2016-Feb-11 03:24N 40°39' W 074°08'2 2.8
2016-Feb-11 02:32N 40°41' W 074°09'0 0.4
2016-Feb-11 01:29N 40°41' W 074°09'0 0.4
2016-Feb-11 00:31N 40°41' W 074°09'3 3.0
2016-Feb-10 23:29N 40°39' W 074°06'1 1.2
2016-Feb-10 22:29N 40°39' W 074°07'0 0.1
2016-Feb-10 21:12N 40°39' W 074°07'3 4.7
2016-Feb-10 20:33N 40°38' W 074°04'3 0.8
2016-Feb-10 16:26N 40°38' W 074°08'4 4.7
2016-Feb-10 15:30N 40°37' W 074°03'5 5.4
2016-Feb-10 14:33N 40°41' W 074°00'0 0.0
2016-Feb-10 13:33N 40°41' W 074°00'6 6.3
2016-Feb-10 12:33N 40°39' W 074°08'0 0.0
2016-Feb-10 11:15N 40°38' W 074°08'0 0.0
2016-Feb-10 10:33N 40°38' W 074°08'0 0.0
2016-Feb-10 09:30N 40°38' W 074°08'0 0.0
2016-Feb-10 06:22N 40°38' W 074°08'0 0.0
2016-Feb-10 04:05N 40°39' W 074°08'3 6.3
2016-Feb-10 03:33N 40°42' W 074°09'3 3.2
2016-Feb-10 02:32N 40°39' W 074°08'6 6.6
2016-Feb-10 01:34N 40°41' W 074°00'2 1.7
2016-Feb-10 00:33N 40°40' W 074°02'1 0.8
2016-Feb-09 23:32N 40°40' W 074°03'0 0.1
2016-Feb-09 22:32N 40°39' W 074°03'0 0.0
2016-Feb-09 21:29N 40°39' W 074°03'0 0.0
2016-Feb-09 20:32N 40°39' W 074°03'0 0.0
2016-Feb-09 19:32N 40°39' W 074°03'0 0.0
2016-Feb-09 18:29N 40°39' W 074°03'0 0.0
2016-Feb-09 17:32N 40°39' W 074°03'2 1.5
2016-Feb-09 16:33N 40°39' W 074°05'2 0.6
2016-Feb-09 12:14N 40°38' W 074°08'2 0.2
2016-Feb-08 23:34N 40°39' W 074°05'2 2.3
2016-Feb-08 22:33N 40°40' W 074°03'4 4.0
2016-Feb-08 21:33N 40°41' W 074°08'0 0.4
2016-Feb-08 20:33N 40°41' W 074°08'2 0.5
2016-Feb-08 16:12N 40°38' W 074°08'0 0.0
2016-Feb-08 13:30N 40°38' W 074°08'0 0.0
2016-Feb-08 12:22N 40°38' W 074°08'0 0.0
2016-Feb-08 11:32N 40°38' W 074°08'0 0.0
2016-Feb-08 10:33N 40°38' W 074°08'0 0.0
2016-Feb-08 09:25N 40°38' W 074°08'0 0.0
2016-Feb-08 08:33N 40°38' W 074°08'0 0.0
2016-Feb-08 07:33N 40°38' W 074°08'0 0.0
2016-Feb-08 06:33N 40°38' W 074°08'0 0.0
2016-Feb-08 05:32N 40°38' W 074°08'0 0.0
2016-Feb-08 04:33N 40°38' W 074°08'0 0.0
2016-Feb-08 03:32N 40°38' W 074°08'0 0.0
2016-Feb-08 02:21N 40°38' W 074°08'0 0.0
2016-Feb-08 01:31N 40°38' W 074°08'0 0.0
2016-Feb-07 21:32N 40°38' W 074°08'0 0.0
2016-Feb-07 20:33N 40°38' W 074°08'0 0.0
2016-Feb-07 19:25N 40°38' W 074°08'0 0.0
2016-Feb-07 17:12N 40°38' W 074°08'1 2.3
2016-Feb-07 16:34N 40°40' W 074°09'0 0.2
2016-Feb-07 15:34N 40°40' W 074°09'1 0.1
2016-Feb-07 06:03N 40°38' W 074°08'1 0.9
2016-Feb-07 04:33N 40°39' W 074°06'3 2.5
2016-Feb-07 03:33N 40°39' W 074°03'0 0.0
2016-Feb-07 02:34N 40°39' W 074°03'1 1.1
2016-Feb-07 01:33N 40°39' W 074°04'3 2.6
2016-Feb-07 00:28N 40°38' W 074°08'0 0.0
2016-Feb-06 22:13N 40°38' W 074°08'2 2.5
2016-Feb-06 21:19N 40°39' W 074°11'4 4.9
2016-Feb-06 20:34N 40°39' W 074°06'2 1.6
2016-Feb-06 19:33N 40°38' W 074°08'0 0.0
2016-Feb-06 18:33N 40°38' W 074°08'0 0.0
2016-Feb-06 17:33N 40°38' W 074°08'0 0.0
2016-Feb-06 16:33N 40°38' W 074°08'0 0.0
2016-Feb-06 15:34N 40°38' W 074°08'0 0.0
2016-Feb-06 14:34N 40°38' W 074°08'0 0.0
2016-Feb-06 13:34N 40°38' W 074°08'0 0.0
2016-Feb-06 12:33N 40°38' W 074°08'0 0.0
2016-Feb-06 11:33N 40°38' W 074°08'0 0.0
2016-Feb-06 10:33N 40°38' W 074°08'0 0.0
2016-Feb-06 09:34N 40°38' W 074°08'0 0.0
2016-Feb-06 08:34N 40°38' W 074°08'0 0.0
2016-Feb-06 07:33N 40°38' W 074°08'0 0.0
2016-Feb-06 06:33N 40°38' W 074°08'0 0.0
2016-Feb-06 05:34N 40°38' W 074°08'0 0.0
2016-Feb-06 04:33N 40°38' W 074°08'0 0.0
2016-Feb-06 03:33N 40°38' W 074°08'0 0.0
2016-Feb-06 02:33N 40°38' W 074°08'0 0.0
2016-Feb-06 01:33N 40°38' W 074°08'3 2.9
2016-Feb-06 00:34N 40°40' W 074°05'4 3.9
2016-Feb-05 23:33N 40°36' W 074°03'4 4.2
2016-Feb-05 22:32N 40°38' W 074°08'0 0.0
2016-Feb-05 21:32N 40°38' W 074°08'0 0.0
2016-Feb-05 20:33N 40°38' W 074°08'0 0.0
2016-Feb-05 18:10N 40°38' W 074°08'0 0.0
2016-Feb-05 17:27N 40°38' W 074°08'0 0.0
2016-Feb-05 16:33N 40°38' W 074°08'0 0.0
2016-Feb-05 15:33N 40°38' W 074°08'0 0.0
2016-Feb-05 14:30N 40°38' W 074°08'0 0.0
2016-Feb-05 13:29N 40°38' W 074°08'0 0.0
2016-Feb-05 12:16N 40°38' W 074°08'2 2.1
2016-Feb-05 11:33N 40°40' W 074°09'0 0.2
2016-Feb-05 10:33N 40°40' W 074°09'2 1.7
2016-Feb-05 09:33N 40°39' W 074°08'0 0.0
2016-Feb-04 22:10N 40°39' W 074°08'0 0.6
2016-Feb-04 21:28N 40°39' W 074°07'4 4.5
2016-Feb-04 20:34N 40°40' W 074°02'0 0.2
2016-Feb-04 19:31N 40°40' W 074°02'0 0.0
2016-Feb-04 18:31N 40°40' W 074°02'0 0.0
2016-Feb-04 17:31N 40°40' W 074°02'0 0.0
2016-Feb-04 16:31N 40°40' W 074°02'0 0.0
2016-Feb-04 15:31N 40°40' W 074°02'0 0.0
2016-Feb-04 14:31N 40°40' W 074°02'0 0.0
2016-Feb-04 13:31N 40°40' W 074°02'0 0.1
2016-Feb-04 12:31N 40°40' W 074°02'0 0.1
2016-Feb-04 11:31N 40°40' W 074°02'0 0.1
2016-Feb-04 10:31N 40°40' W 074°02'0 0.0
2016-Feb-04 09:31N 40°40' W 074°02'0 0.0
2016-Feb-04 08:31N 40°40' W 074°02'0 0.0
2016-Feb-04 07:31N 40°40' W 074°02'0 0.1
2016-Feb-04 06:31N 40°40' W 074°02'0 0.1
2016-Feb-04 05:31N 40°40' W 074°02'0 0.0
2016-Feb-04 04:31N 40°40' W 074°02'0 0.0
2016-Feb-04 03:31N 40°40' W 074°02'2 2.0
2016-Feb-04 02:32N 40°38' W 074°04'3 3.1
2016-Feb-04 01:33N 40°38' W 074°08'0 0.3
2016-Feb-04 00:33N 40°39' W 074°08'3 2.9
2016-Feb-03 23:33N 40°41' W 074°08'3 3.2
2016-Feb-03 22:33N 40°39' W 074°06'5 4.6
2016-Feb-03 21:33N 40°41' W 074°00'6 1.2
2016-Feb-03 16:10N 40°38' W 074°08'2 3.5
2016-Feb-03 15:32N 40°41' W 074°09'2 1.6
2016-Feb-03 14:33N 40°39' W 074°09'1 1.0
2016-Feb-03 13:32N 40°38' W 074°08'0 0.0
2016-Feb-03 12:26N 40°38' W 074°08'2 2.6
2016-Feb-03 11:33N 40°41' W 074°09'0 0.0
2016-Feb-03 10:33N 40°41' W 074°09'3 2.6
2016-Feb-03 09:22N 40°39' W 074°05'3 3.5
2016-Feb-03 08:33N 40°37' W 074°03'4 4.0
2016-Feb-03 07:31N 40°38' W 074°08'0 0.0
2016-Feb-03 06:28N 40°38' W 074°08'0 0.0
2016-Feb-03 05:31N 40°38' W 074°08'0 0.0
2016-Feb-03 04:28N 40°38' W 074°08'0 0.0
2016-Feb-03 03:31N 40°38' W 074°08'0 0.0
2016-Feb-03 02:31N 40°38' W 074°08'2 1.8
2016-Feb-03 01:33N 40°40' W 074°08'0 0.2
2016-Feb-03 00:34N 40°40' W 074°08'5 5.2
2016-Feb-02 23:33N 40°41' W 074°01'4 4.4
2016-Feb-02 22:33N 40°39' W 074°06'1 0.5
2016-Feb-02 20:21N 40°38' W 074°08'0 0.0
2016-Feb-02 18:27N 40°38' W 074°08'0 0.0
2016-Feb-02 16:33N 40°38' W 074°08'1 0.7
2016-Feb-02 15:33N 40°38' W 074°09'2 2.3
2016-Feb-02 14:33N 40°41' W 074°09'2 0.3
2016-Feb-02 05:32N 40°38' W 074°08'0 0.0
2016-Feb-02 04:32N 40°38' W 074°08'0 0.0
2016-Feb-02 03:33N 40°38' W 074°08'6 6.3
2016-Feb-02 02:33N 40°41' W 074°00'7 6.9
2016-Feb-02 01:33N 40°38' W 074°09'3 2.8
2016-Feb-02 00:22N 40°42' W 074°09'2 2.5
2016-Feb-01 23:32N 40°40' W 074°09'1 1.5
2016-Feb-01 22:34N 40°39' W 074°07'2 1.6
2016-Feb-01 21:33N 40°40' W 074°09'  

Dump ship's entire track history